Time;durP1;ratioP1;P1;durP2;ratioP2;P2;SDS_P1;SDS_P2;PMS_P1;PMS_P2;Temp;Humidity;BMP_temperature;BMP_pressure;BME280_temperature;BME280_humidity;BME280_pressure;Samples;Min_cycle;Max_cycle;Signal;HPM_P1;HPM_P2
2023/07/15 00:01:19;;;;;;;5.63;1.53;;;;;;;15.69;94.63;100124.75;5084697;28;20291;-55
2023/07/15 00:03:50;;;;;;;2.27;1.30;;;;;;;15.85;95.99;100130.28;5062947;28;20377;-57
2023/07/15 00:06:23;;;;;;;4.33;1.33;;;;;;;16.09;93.09;100128.41;5083932;28;20304;-57
2023/07/15 00:08:55;;;;;;;2.70;1.53;;;;;;;16.28;91.10;100112.69;5077510;28;20901;-55
2023/07/15 00:11:31;;;;;;;3.20;1.37;;;;;;;16.48;88.37;100122.38;5084342;28;20491;-58
2023/07/15 00:14:02;;;;;;;3.77;1.40;;;;;;;16.63;90.03;100118.22;5073148;28;20396;-57
2023/07/15 00:16:34;;;;;;;2.77;1.20;;;;;;;16.96;90.15;100122.97;5084694;28;20799;-57
2023/07/15 00:19:05;;;;;;;5.67;1.30;;;;;;;17.03;85.93;100116.50;5073875;28;20937;-56
2023/07/15 00:21:38;;;;;;;3.80;1.07;;;;;;;17.08;84.70;100119.78;5084644;28;20321;-58
2023/07/15 00:24:10;;;;;;;4.63;1.40;;;;;;;17.05;86.23;100119.91;5073688;28;20301;-59
2023/07/15 00:26:41;;;;;;;5.50;1.30;;;;;;;17.36;88.39;100107.94;5074950;28;20762;-58
2023/07/15 00:29:11;;;;;;;3.10;1.47;;;;;;;17.54;84.64;100093.84;5084187;28;20320;-57
2023/07/15 00:31:43;;;;;;;2.33;0.90;;;;;;;17.65;82.66;100088.06;5072509;28;20283;-57
2023/07/15 00:34:14;;;;;;;8.33;1.23;;;;;;;17.59;83.68;100098.91;5070246;28;20290;-57
2023/07/15 00:36:47;;;;;;;6.47;1.00;;;;;;;17.39;81.30;100098.06;5054077;28;20282;-56
2023/07/15 00:39:17;;;;;;;2.73;1.10;;;;;;;17.42;81.64;100092.66;5064156;28;20617;-58
2023/07/15 00:41:48;;;;;;;1.83;0.90;;;;;;;17.61;82.55;100091.78;5058869;28;20278;-58
2023/07/15 00:44:17;;;;;;;1.60;0.90;;;;;;;17.44;79.53;100084.66;5084394;28;20289;-58
2023/07/15 00:47:21;;;;;;;2.20;0.80;;;;;;;17.78;81.67;100077.75;5072762;28;20274;-57
2023/07/15 00:49:52;;;;;;;3.43;1.00;;;;;;;18.15;80.30;100065.38;5072828;28;20273;-56
2023/07/15 00:52:23;;;;;;;6.87;1.40;;;;;;;18.24;78.82;100076.31;5078428;28;20724;-57
2023/07/15 00:54:55;;;;;;;2.30;0.93;;;;;;;18.38;79.38;100067.69;5073997;28;20273;-59
2023/07/15 00:57:27;;;;;;;0.97;0.80;;;;;;;18.42;76.29;100069.25;5084037;28;20376;-57
2023/07/15 00:59:59;;;;;;;2.67;0.90;;;;;;;18.23;77.76;100064.03;5073656;28;20327;-55
2023/07/15 01:02:32;;;;;;;3.43;0.80;;;;;;;18.24;76.72;100049.00;5076990;28;20286;-56
2023/07/15 01:05:03;;;;;;;1.37;0.80;;;;;;;18.28;76.35;100046.13;5073549;28;20288;-57
2023/07/15 01:07:33;;;;;;;4.43;0.97;;;;;;;18.32;76.88;100036.25;5083785;28;20368;-56
2023/07/15 01:10:13;;;;;;;1.53;1.10;;;;;;;18.28;77.94;100035.56;5073591;28;20286;-57
2023/07/15 01:12:43;;;;;;;2.97;0.80;;;;;;;18.37;78.15;100028.94;5073412;28;20291;-58
2023/07/15 01:15:14;;;;;;;1.77;0.90;;;;;;;18.15;78.09;100033.66;5083769;28;20292;-57
2023/07/15 01:17:46;;;;;;;4.33;0.90;;;;;;;18.00;77.33;100020.25;5073915;28;20285;-58
2023/07/15 01:20:17;;;;;;;4.27;1.00;;;;;;;18.11;77.22;100038.22;5088010;28;20292;-56
2023/07/15 01:22:49;;;;;;;2.57;0.90;;;;;;;18.35;77.27;100030.81;5077121;28;20292;-56
2023/07/15 01:25:19;;;;;;;3.40;0.90;;;;;;;18.50;77.94;100030.00;5087437;28;20782;-57
2023/07/15 01:27:50;;;;;;;1.73;0.70;;;;;;;18.52;75.15;100044.00;5077493;28;20281;-57
2023/07/15 01:30:20;;;;;;;2.03;1.00;;;;;;;18.67;76.82;100028.22;5086754;28;20752;-56
2023/07/15 01:32:51;;;;;;;3.37;0.90;;;;;;;18.85;78.01;99999.97;5067726;28;20330;-59
2023/07/15 01:35:22;;;;;;;4.47;0.80;;;;;;;19.21;71.94;100030.63;5086219;28;20803;-59
2023/07/15 01:37:54;;;;;;;2.30;0.80;;;;;;;19.26;71.17;100013.53;5076451;28;20384;-58
2023/07/15 01:40:25;;;;;;;10.43;1.07;;;;;;;19.53;73.62;100015.56;5085114;28;20281;-56
2023/07/15 01:42:55;;;;;;;4.10;0.70;;;;;;;19.74;70.46;100017.00;5075603;28;20274;-58
2023/07/15 01:45:26;;;;;;;3.90;0.60;;;;;;;19.92;67.57;100008.91;5086952;28;20278;-56
2023/07/15 01:47:57;;;;;;;4.40;1.00;;;;;;;20.06;70.04;100019.56;5076420;28;20309;-56
2023/07/15 01:50:27;;;;;;;3.50;0.90;;;;;;;20.01;68.34;100021.63;5085177;28;20262;-57
2023/07/15 01:52:59;;;;;;;1.40;0.70;;;;;;;19.91;68.55;100020.47;5076217;28;20369;-56
2023/07/15 01:55:30;;;;;;;2.03;0.90;;;;;;;19.87;66.85;100018.94;5087080;28;20272;-53
2023/07/15 01:58:01;;;;;;;2.73;0.80;;;;;;;19.87;66.75;100011.84;5076685;28;20277;-55
2023/07/15 02:00:32;;;;;;;5.30;0.93;;;;;;;19.63;65.70;100000.84;5084408;28;20286;-57
2023/07/15 02:03:02;;;;;;;1.33;0.60;;;;;;;19.52;65.85;100009.41;5076075;28;20628;-58
2023/07/15 02:05:34;;;;;;;2.87;0.63;;;;;;;19.62;66.99;100004.44;5086643;28;20392;-59
2023/07/15 02:08:06;;;;;;;0.50;0.50;;;;;;;19.64;58.34;100017.59;5075535;28;20283;-59
2023/07/15 02:10:37;;;;;;;9.07;0.97;;;;;;;19.67;65.27;100002.41;5082610;28;20282;-56
2023/07/15 02:13:09;;;;;;;1.20;0.50;;;;;;;20.01;55.00;100001.25;5070366;28;20751;-57
2023/07/15 02:15:40;;;;;;;0.93;0.60;;;;;;;20.52;56.91;100006.16;5085386;28;20311;-60
2023/07/15 02:18:11;;;;;;;4.97;0.57;;;;;;;20.84;56.08;100016.59;5086036;28;20326;-58
2023/07/15 02:20:41;;;;;;;6.40;0.57;;;;;;;20.90;54.58;100006.44;5071854;28;20289;-56
2023/07/15 02:23:13;;;;;;;3.67;0.47;;;;;;;21.00;54.55;100001.41;5065408;28;20274;-59
2023/07/15 02:25:44;;;;;;;4.53;0.63;;;;;;;20.83;60.01;99993.66;5071449;28;20273;-56
2023/07/15 02:28:14;;;;;;;1.67;0.50;;;;;;;20.82;60.03;99995.47;5085817;28;20272;-56
2023/07/15 02:30:45;;;;;;;3.27;0.60;;;;;;;21.01;56.82;100005.75;5073186;28;20286;-55
2023/07/15 02:33:15;;;;;;;9.60;1.00;;;;;;;21.09;60.09;99990.19;5081919;28;20269;-58
2023/07/15 02:35:46;;;;;;;2.33;0.60;;;;;;;21.04;54.88;99994.94;5073395;28;20334;-59
2023/07/15 02:38:18;;;;;;;1.37;0.60;;;;;;;21.15;57.32;100004.88;5085330;28;20683;-58
2023/07/15 02:40:50;;;;;;;2.30;0.60;;;;;;;21.08;56.74;99972.53;5071722;28;20685;-57
2023/07/15 02:43:23;;;;;;;3.97;1.17;;;;;;;21.49;58.74;100014.22;5078500;28;20787;-56
2023/07/15 02:45:56;;;;;;;3.93;0.50;;;;;;;21.57;51.86;99991.56;5065156;28;20370;-58
2023/07/15 02:48:27;;;;;;;1.90;0.50;;;;;;;21.85;53.05;99986.09;5074019;28;20736;-58
2023/07/15 02:50:58;;;;;;;2.23;0.50;;;;;;;22.01;51.27;99987.72;5063283;28;20369;-56
2023/07/15 02:53:31;;;;;;;0.47;0.40;;;;;;;21.96;50.01;99983.56;5078228;28;20588;-58
2023/07/15 02:56:01;;;;;;;0.40;0.40;;;;;;;21.98;50.44;99992.28;5054748;28;20362;-59
2023/07/15 02:58:32;;;;;;;1.50;0.47;;;;;;;21.80;47.53;99990.88;5067727;28;20766;-58
2023/07/15 03:01:02;;;;;;;3.13;0.50;;;;;;;21.61;49.64;99990.41;5063688;28;20755;-59
2023/07/15 03:03:33;;;;;;;0.80;0.50;;;;;;;21.60;50.28;99983.41;5085397;28;20281;-57
2023/07/15 03:06:03;;;;;;;0.73;0.50;;;;;;;21.56;50.27;99987.19;5075402;28;20285;-59
2023/07/15 03:08:36;;;;;;;0.90;0.60;;;;;;;21.44;48.01;99984.41;5085481;28;20343;-57
2023/07/15 03:11:09;;;;;;;0.90;0.50;;;;;;;21.28;46.83;99987.19;5074690;28;20305;-60
2023/07/15 03:13:39;;;;;;;0.83;0.50;;;;;;;21.21;46.17;99985.03;5072265;28;20142;-57
2023/07/15 03:16:10;;;;;;;2.23;0.50;;;;;;;21.15;48.91;99977.47;5084988;28;20277;-58
2023/07/15 03:18:40;;;;;;;0.90;0.50;;;;;;;21.00;46.44;99974.84;5076214;28;20292;-60
2023/07/15 03:21:11;;;;;;;0.90;0.40;;;;;;;21.02;45.92;99975.59;5085006;28;20280;-60
2023/07/15 03:23:43;;;;;;;1.30;0.60;;;;;;;21.16;49.65;99973.84;5074165;28;20774;-56
2023/07/15 03:26:14;;;;;;;1.07;0.60;;;;;;;21.37;50.56;99988.41;5064469;28;20320;-59
2023/07/15 03:28:45;;;;;;;2.47;0.60;;;;;;;21.47;47.06;99978.91;5054271;28;20323;-58
2023/07/15 03:31:16;;;;;;;1.00;0.53;;;;;;;21.40;47.97;99985.56;5065914;28;20377;-58
2023/07/15 03:33:50;;;;;;;0.50;0.50;;;;;;;21.29;47.22;99985.38;5059352;28;20282;-58
2023/07/15 03:36:22;;;;;;;1.20;0.50;;;;;;;21.21;48.50;99999.16;5070965;28;20623;-59
2023/07/15 03:38:55;;;;;;;1.30;0.70;;;;;;;21.18;49.18;99995.84;5059627;28;20281;-58
2023/07/15 03:41:28;;;;;;;4.77;0.93;;;;;;;21.29;49.30;100011.94;5070372;28;20751;-58
2023/07/15 03:43:58;;;;;;;4.47;1.20;;;;;;;21.32;49.03;100006.44;5060334;28;22609;-57
2023/07/15 03:46:29;;;;;;;1.93;0.77;;;;;;;21.38;50.10;100000.72;5069930;28;20047;-56
2023/07/15 03:48:59;;;;;;;2.20;0.70;;;;;;;21.51;49.74;100001.63;5061333;28;20287;-57
2023/07/15 03:51:30;;;;;;;4.93;1.43;;;;;;;21.63;51.52;99999.13;5070143;28;20285;-56
2023/07/15 03:54:03;;;;;;;1.97;1.30;;;;;;;21.81;50.63;99981.94;5060143;28;20290;-56
2023/07/15 03:56:33;;;;;;;2.33;1.10;;;;;;;21.90;50.73;99965.38;5068782;28;20289;-58
2023/07/15 03:59:05;;;;;;;3.17;1.43;;;;;;;21.91;50.73;99948.44;5059487;28;20398;-57
2023/07/15 04:01:36;;;;;;;5.23;1.53;;;;;;;21.66;51.26;99940.44;5069627;28;20381;-56
2023/07/15 04:04:09;;;;;;;3.07;1.50;;;;;;;21.50;52.37;99948.59;5060093;28;20343;-59
2023/07/15 04:06:40;;;;;;;2.83;1.37;;;;;;;21.15;53.23;99957.06;5065627;28;20137;-58
2023/07/15 04:09:12;;;;;;;3.70;2.00;;;;;;;21.08;57.12;99959.25;5070765;28;20316;-59
2023/07/15 04:11:43;;;;;;;4.40;1.53;;;;;;;20.88;55.75;99970.31;5059321;28;20036;-57
2023/07/15 04:14:13;;;;;;;3.40;1.20;;;;;;;20.82;55.42;99981.34;5069602;28;20372;-57
2023/07/15 04:16:44;;;;;;;2.13;1.20;;;;;;;20.64;56.56;100000.13;5059443;28;20631;-57
2023/07/15 04:19:14;;;;;;;4.67;1.47;;;;;;;20.66;57.65;99992.91;5077446;28;20389;-57
2023/07/15 04:21:45;;;;;;;2.70;1.50;;;;;;;20.39;57.79;99986.63;5053652;28;20286;-58
2023/07/15 04:24:17;;;;;;;2.70;1.60;;;;;;;20.25;59.44;99983.03;5064084;28;20286;-57
2023/07/15 04:26:47;;;;;;;2.23;1.70;;;;;;;20.45;59.53;99989.75;5053662;28;20286;-58
2023/07/15 04:29:18;;;;;;;6.07;2.10;;;;;;;20.57;59.94;99998.81;5064018;28;20388;-61
2023/07/15 04:31:48;;;;;;;2.17;1.87;;;;;;;20.58;60.76;99995.19;5072838;28;20274;-58
2023/07/15 04:34:19;;;;;;;2.80;1.93;;;;;;;20.61;59.91;100002.94;5079970;28;20300;-58
2023/07/15 04:36:53;;;;;;;4.03;1.90;;;;;;;20.76;60.09;99987.03;5069210;28;20281;-57
2023/07/15 04:39:27;;;;;;;4.67;2.20;;;;;;;21.01;61.51;99989.81;5083678;28;20284;-59
2023/07/15 04:41:57;;;;;;;2.83;1.77;;;;;;;21.33;61.50;100002.81;5073364;28;20278;-59
2023/07/15 04:44:28;;;;;;;4.10;2.10;;;;;;;21.57;60.52;100004.84;5084123;28;20301;-58
2023/07/15 04:46:58;;;;;;;3.40;1.83;;;;;;;21.63;58.47;100009.78;5073273;28;20291;-58
2023/07/15 04:49:29;;;;;;;5.67;1.70;;;;;;;21.60;58.80;100009.97;5079426;28;20277;-57
2023/07/15 04:52:00;;;;;;;5.30;2.30;;;;;;;21.30;60.38;100013.66;5056673;28;20290;-57
2023/07/15 04:54:32;;;;;;;5.03;2.07;;;;;;;21.02;60.94;100011.94;5072036;28;20282;-57
2023/07/15 04:57:03;;;;;;;5.10;2.10;;;;;;;20.71;62.81;100015.66;5064420;28;21332;-60
2023/07/15 04:59:33;;;;;;;3.20;2.13;;;;;;;20.44;63.26;99997.78;5073306;28;20288;-60
2023/07/15 05:02:04;;;;;;;3.67;1.90;;;;;;;20.35;62.53;100015.16;5063069;28;20293;-58
2023/07/15 05:04:34;;;;;;;13.13;3.47;;;;;;;20.34;64.47;100009.94;5074526;28;20629;-58
2023/07/15 05:07:05;;;;;;;2.43;1.67;;;;;;;20.39;64.55;100006.06;5062510;28;20322;-60
2023/07/15 05:09:37;;;;;;;7.77;3.07;;;;;;;20.24;66.06;100013.16;5075295;28;20290;-63
2023/07/15 05:12:09;;;;;;;4.47;1.90;;;;;;;19.91;65.09;100031.06;5062240;28;20270;-60
2023/07/15 05:14:39;;;;;;;6.47;1.70;;;;;;;19.62;66.00;100041.56;5071527;28;20389;-63
2023/07/15 05:17:10;;;;;;;10.60;1.10;;;;;;;19.09;65.97;100035.66;5073709;28;20334;-60
2023/07/15 05:19:40;;;;;;;3.10;0.83;;;;;;;18.17;67.09;100053.78;5065837;28;20719;-61
2023/07/15 05:22:11;;;;;;;3.50;0.83;;;;;;;17.40;69.16;100056.69;5073301;28;20611;-62
2023/07/15 05:24:43;;;;;;;2.23;0.90;;;;;;;16.96;72.75;100051.69;5062019;28;20294;-58
2023/07/15 05:27:14;;;;;;;11.10;1.83;;;;;;;16.78;74.07;100043.69;5073156;28;20293;-62
2023/07/15 05:29:45;;;;;;;5.93;1.50;;;;;;;16.79;75.42;100055.94;5062020;28;20281;-61
2023/07/15 05:32:15;;;;;;;3.43;1.00;;;;;;;16.74;74.74;100044.72;5072342;28;20278;-61
2023/07/15 05:34:46;;;;;;;8.10;1.30;;;;;;;16.63;75.21;100035.59;5063647;28;20312;-61
2023/07/15 05:37:16;;;;;;;3.23;0.97;;;;;;;16.47;75.46;100022.22;5073603;28;20373;-62
2023/07/15 05:39:49;;;;;;;9.00;1.83;;;;;;;16.28;76.31;100038.88;5063595;28;20302;-59
2023/07/15 05:42:20;;;;;;;8.60;1.20;;;;;;;16.07;77.30;100023.97;5075151;28;20290;-60
2023/07/15 05:44:51;;;;;;;7.03;1.20;;;;;;;15.99;77.68;100049.78;5061374;28;20320;-61
2023/07/15 05:47:21;;;;;;;7.40;1.17;;;;;;;15.79;79.04;100054.09;5073871;28;20366;-61
2023/07/15 05:49:52;;;;;;;9.63;1.40;;;;;;;15.63;79.95;100055.66;5061614;28;20361;-63
2023/07/15 05:52:22;;;;;;;6.40;1.30;;;;;;;15.50;80.69;100045.59;5071762;28;20270;-63
2023/07/15 05:54:54;;;;;;;1.93;1.00;;;;;;;15.38;80.91;100055.78;5061840;28;20673;-61
2023/07/15 05:57:25;;;;;;;2.20;1.27;;;;;;;15.29;82.65;100051.69;5074061;28;20658;-61
2023/07/15 05:59:55;;;;;;;5.70;1.50;;;;;;;15.21;83.04;100051.16;5062066;28;20282;-61
2023/07/15 06:02:27;;;;;;;8.80;1.23;;;;;;;15.12;84.11;100048.88;5072849;28;20281;-62
2023/07/15 06:04:58;;;;;;;11.03;1.30;;;;;;;15.09;84.63;100044.59;5061331;28;20317;-58
2023/07/15 06:07:28;;;;;;;3.03;1.40;;;;;;;15.10;84.95;100041.91;5072831;28;20261;-62
2023/07/15 06:10:00;;;;;;;2.77;1.20;;;;;;;15.09;84.54;100045.44;5063218;28;20288;-60
2023/07/15 06:12:31;;;;;;;7.43;1.30;;;;;;;15.08;84.78;100049.00;5072841;28;20377;-60
2023/07/15 06:15:02;;;;;;;7.33;1.63;;;;;;;14.95;85.52;100026.72;5061929;28;20280;-65
2023/07/15 06:17:32;;;;;;;4.37;1.10;;;;;;;14.96;86.18;100031.03;5072836;28;20993;-62
2023/07/15 06:20:03;;;;;;;4.70;1.33;;;;;;;14.99;86.76;100019.53;5061757;28;20291;-63
2023/07/15 06:22:34;;;;;;;2.40;1.40;;;;;;;15.01;87.21;100029.09;5071641;28;20290;-62
2023/07/15 06:25:07;;;;;;;16.20;1.70;;;;;;;15.04;86.28;100031.59;5061179;28;20313;-61
2023/07/15 06:27:38;;;;;;;5.57;1.47;;;;;;;15.08;86.38;100038.47;5072129;28;20731;-61
2023/07/15 06:30:09;;;;;;;2.93;1.30;;;;;;;15.10;86.33;100031.38;5060799;28;20281;-59
2023/07/15 06:32:40;;;;;;;8.20;1.50;;;;;;;15.07;85.91;100026.22;5065961;28;20274;-60
2023/07/15 06:35:11;;;;;;;5.20;1.30;;;;;;;15.05;86.12;100017.53;5072125;28;20962;-61
2023/07/15 06:37:41;;;;;;;7.63;1.20;;;;;;;15.07;86.59;100026.22;5060829;28;20408;-60
2023/07/15 06:40:16;;;;;;;7.93;1.73;;;;;;;15.16;87.15;100018.91;5071567;28;20683;-62
2023/07/15 06:42:47;;;;;;;16.83;3.27;;;;;;;15.04;86.05;100000.03;5061839;28;20377;-62
2023/07/15 06:45:22;;;;;;;5.47;1.27;;;;;;;15.01;86.56;100005.41;5072288;28;20277;-63
2023/07/15 06:47:52;;;;;;;5.50;1.63;;;;;;;15.07;86.45;100009.56;5060768;28;20286;-64
2023/07/15 06:50:23;;;;;;;9.33;1.70;;;;;;;14.95;86.59;99995.13;5070745;28;20292;-61
2023/07/15 06:52:53;;;;;;;3.43;1.40;;;;;;;14.87;87.54;100002.44;5060649;28;20628;-62
2023/07/15 06:55:25;;;;;;;7.40;1.40;;;;;;;14.78;87.21;99993.16;5071293;28;20296;-62
2023/07/15 06:57:56;;;;;;;3.53;1.80;;;;;;;14.72;88.97;99992.50;5061589;28;20286;-61
2023/07/15 07:00:27;;;;;;;4.03;1.53;;;;;;;14.80;89.59;99991.31;5071513;28;20308;-63
2023/07/15 07:02:58;;;;;;;5.77;3.10;;;;;;;14.88;89.19;100009.44;5059624;28;20724;-62
2023/07/15 07:05:29;;;;;;;7.53;1.53;;;;;;;14.62;89.73;100013.88;5072245;28;20935;-61
2023/07/15 07:08:00;;;;;;;56.13;35.60;;;;;;;14.57;91.32;100021.09;5059673;28;20300;-60
2023/07/15 07:10:32;;;;;;;15.60;10.53;;;;;;;14.47;91.28;100035.44;5071064;28;20733;-59
2023/07/15 07:13:04;;;;;;;4.47;2.70;;;;;;;14.41;92.41;100046.19;5062637;28;20308;-61
2023/07/15 07:15:35;;;;;;;4.70;1.70;;;;;;;14.33;93.48;100037.72;5075978;28;20808;-62
2023/07/15 07:18:05;;;;;;;2.67;1.27;;;;;;;14.33;93.54;100032.47;5094557;28;20293;-63
2023/07/15 07:20:36;;;;;;;9.00;1.80;;;;;;;14.37;94.14;100037.53;5083567;28;20361;-59
2023/07/15 07:23:07;;;;;;;3.63;1.40;;;;;;;14.41;93.46;100025.16;5060342;28;20293;-65
2023/07/15 07:25:45;;;;;;;4.20;1.03;;;;;;;14.30;92.70;100011.53;5065919;28;20282;-59
2023/07/15 07:28:19;;;;;;;6.57;1.30;;;;;;;14.30;92.40;100038.66;5072530;28;20310;-62
2023/07/15 07:30:50;;;;;;;5.17;1.60;;;;;;;14.24;92.82;100044.16;5059905;28;20097;-61
2023/07/15 07:33:21;;;;;;;3.80;1.27;;;;;;;14.20;93.33;100039.91;5071635;28;20589;-61
2023/07/15 07:35:51;;;;;;;7.50;2.33;;;;;;;14.06;93.62;100029.91;5059827;28;20286;-61
2023/07/15 07:38:22;;;;;;;12.90;2.93;;;;;;;14.04;94.36;100029.06;5071729;28;20294;-59
2023/07/15 07:40:54;;;;;;;7.37;1.57;;;;;;;13.98;94.94;100024.91;5059844;28;20284;-61
2023/07/15 07:43:25;;;;;;;7.40;2.42;;;;;;;13.93;95.19;100033.84;5071133;28;20660;-61
2023/07/15 07:45:56;;;;;;;6.85;2.10;;;;;;;13.93;95.29;100044.38;5060154;28;20035;-61
2023/07/15 07:48:26;;;;;;;2.58;1.60;;;;;;;13.91;96.14;100041.78;5070584;28;20116;-61
2023/07/15 07:50:59;;;;;;;4.97;1.33;;;;;;;13.81;95.82;100046.47;5060612;28;20553;-60
2023/07/15 07:53:30;;;;;;;3.85;1.90;;;;;;;13.73;95.65;100043.25;5069730;28;20060;-64
2023/07/15 07:56:02;;;;;;;3.30;1.50;;;;;;;13.64;96.50;100038.28;5061576;28;20064;-57
2023/07/15 07:58:33;;;;;;;3.08;1.73;;;;;;;13.56;96.68;100053.44;5069616;28;20048;-62
2023/07/15 08:01:03;;;;;;;6.63;2.10;;;;;;;13.61;96.43;100054.16;5094825;28;20048;-64
2023/07/15 08:03:34;;;;;;;16.80;3.55;;;;;;;13.57;97.38;100052.53;5096182;28;20044;-63
2023/07/15 08:06:06;;;;;;;23.38;4.55;;;;;;;13.59;98.16;100030.56;5094177;28;20382;-63
2023/07/15 08:08:36;;;;;;;10.50;2.33;;;;;;;13.58;97.44;100034.09;5100275;28;20035;-61
2023/07/15 08:11:08;;;;;;;2.97;1.50;;;;;;;13.54;97.67;100021.13;5086105;28;20047;-60
2023/07/15 08:13:39;;;;;;;3.45;2.13;;;;;;;13.51;97.96;100023.84;5070930;28;20039;-60
2023/07/15 08:16:29;;;;;;;4.45;1.60;;;;;;;13.19;98.66;99952.22;5072760;28;20073;-59
2023/07/15 08:19:00;;;;;;;3.20;1.90;;;;;;;13.52;98.71;100013.28;5080307;28;20127;-60
2023/07/15 08:21:31;;;;;;;2.33;1.60;;;;;;;13.47;98.94;100019.59;5102559;28;20071;-61
2023/07/15 08:24:02;;;;;;;3.70;1.65;;;;;;;13.41;99.23;100014.56;5114402;28;20047;-61
2023/07/15 08:26:35;;;;;;;3.28;1.85;;;;;;;13.37;99.36;100030.38;5097270;28;20043;-64
2023/07/15 08:29:05;;;;;;;3.22;1.55;;;;;;;13.34;99.73;100012.13;5097667;28;20070;-61
2023/07/15 08:31:36;;;;;;;5.15;1.80;;;;;;;13.29;100.00;100021.91;5076287;28;20040;-61
2023/07/15 08:34:06;;;;;;;5.45;2.05;;;;;;;13.14;100.00;100022.34;5075959;28;20044;-61
2023/07/15 08:36:37;;;;;;;5.70;1.75;;;;;;;13.13;100.00;100041.63;5113942;28;20401;-61
2023/07/15 08:39:07;;;;;;;5.70;2.05;;;;;;;13.14;100.00;100048.59;5103595;28;20059;-61
2023/07/15 08:41:40;;;;;;;7.03;2.17;;;;;;;13.09;100.00;100045.25;5099212;28;20431;-62
2023/07/15 08:44:14;;;;;;;4.88;2.35;;;;;;;13.10;100.00;100036.47;5066129;28;20071;-60
2023/07/15 08:46:46;;;;;;;9.50;2.08;;;;;;;13.02;100.00;100035.84;5084371;28;20039;-61
2023/07/15 08:49:18;;;;;;;4.13;1.98;;;;;;;12.95;100.00;100038.66;5095543;28;20059;-62
2023/07/15 08:51:49;;;;;;;8.07;2.10;;;;;;;12.89;100.00;100043.22;5106989;28;20039;-63
2023/07/15 08:54:20;;;;;;;3.42;2.08;;;;;;;12.71;100.00;100023.63;5117355;28;20048;-61
2023/07/15 08:56:53;;;;;;;6.82;2.15;;;;;;;12.70;100.00;100035.00;5118116;28;20126;-61
2023/07/15 08:59:24;;;;;;;4.00;2.50;;;;;;;12.74;100.00;100034.88;5104810;28;20086;-61
2023/07/15 09:01:54;;;;;;;6.32;2.10;;;;;;;12.72;100.00;100035.84;5097181;28;20044;-63
2023/07/15 09:04:25;;;;;;;4.95;2.13;;;;;;;12.66;100.00;100029.00;5097447;28;20538;-61
2023/07/15 09:06:57;;;;;;;5.00;2.42;;;;;;;12.68;100.00;100031.56;5096849;28;20040;-58
2023/07/15 09:09:35;;;;;;;4.75;2.28;;;;;;;12.56;100.00;100021.47;5072675;28;20382;-60
2023/07/15 09:12:11;;;;;;;4.75;2.25;;;;;;;12.49;100.00;100016.38;5063029;28;20188;-60
2023/07/15 09:14:48;;;;;;;5.00;1.83;;;;;;;12.55;100.00;100024.97;5062353;28;20135;-60
2023/07/15 09:17:24;;;;;;;5.88;2.65;;;;;;;12.50;100.00;100020.72;5073666;28;20054;-61
2023/07/15 09:19:55;;;;;;;4.78;1.90;;;;;;;12.46;100.00;100007.75;5061851;28;20461;-62
2023/07/15 09:22:26;;;;;;;5.30;1.77;;;;;;;12.44;100.00;100007.78;5073091;28;20537;-60
2023/07/15 09:25:04;;;;;;;7.30;2.30;;;;;;;12.32;100.00;99997.66;5063187;28;20112;-60
2023/07/15 09:27:41;;;;;;;4.22;2.15;;;;;;;12.37;100.00;100008.84;5072762;28;20055;-61
2023/07/15 09:30:12;;;;;;;3.33;1.85;;;;;;;12.38;100.00;100005.34;5063768;28;20075;-60
2023/07/15 09:32:46;;;;;;;6.85;2.38;;;;;;;12.38;100.00;100014.94;5063121;28;20101;-59
2023/07/15 09:35:28;;;;;;;3.72;2.17;;;;;;;12.35;100.00;100015.91;5073878;28;20101;-59
2023/07/15 09:38:12;;;;;;;8.48;2.95;;;;;;;12.39;100.00;100019.31;5061133;28;20059;-61
2023/07/15 09:40:45;;;;;;;8.02;2.50;;;;;;;12.40;100.00;100027.09;5063135;28;20101;-59
2023/07/15 09:43:23;;;;;;;7.15;2.25;;;;;;;12.28;100.00;100009.97;5071949;28;20387;-60
2023/07/15 09:46:03;;;;;;;6.30;3.20;;;;;;;12.30;100.00;100033.50;5062651;28;20141;-60
2023/07/15 09:48:41;;;;;;;8.40;3.28;;;;;;;12.27;100.00;100038.84;5070833;28;20051;-58
2023/07/15 09:51:14;;;;;;;7.65;2.83;;;;;;;12.14;100.00;100040.06;5072841;28;20592;-59
2023/07/15 09:53:50;;;;;;;8.13;3.10;;;;;;;12.05;100.00;100044.63;5061482;28;20047;-61
2023/07/15 09:56:25;;;;;;;8.43;3.20;;;;;;;12.03;100.00;100045.56;5072903;28;20059;-58
2023/07/15 09:59:07;;;;;;;9.73;3.03;;;;;;;11.75;100.00;100003.50;5058390;28;20075;-58
2023/07/15 10:01:43;;;;;;;11.32;2.97;;;;;;;11.87;100.00;100029.41;5072445;28;20066;-63
2023/07/15 10:04:24;;;;;;;10.30;3.40;;;;;;;11.84;100.00;100046.00;5059957;28;20456;-60
2023/07/15 10:06:56;;;;;;;8.07;2.65;;;;;;;11.88;100.00;100057.28;5062152;28;20052;-60
2023/07/15 10:09:44;;;;;;;9.13;3.13;;;;;;;11.84;100.00;100050.41;5073580;28;20540;-58
2023/07/15 10:12:17;;;;;;;6.00;2.45;;;;;;;11.84;100.00;100045.16;5060963;28;20450;-59
2023/07/15 10:14:51;;;;;;;9.70;3.30;;;;;;;11.59;100.00;100029.19;5062427;28;20071;-60
2023/07/15 10:17:41;;;;;;;8.75;3.10;;;;;;;11.80;100.00;100069.69;5072517;28;20087;-60
2023/07/15 10:20:22;;;;;;;8.43;3.13;;;;;;;11.81;100.00;100071.41;5061412;28;20056;-59
2023/07/15 10:23:12;;;;;;;8.93;3.15;;;;;;;11.81;100.00;100081.88;5061530;28;20969;-59
2023/07/15 10:26:00;;;;;;;9.63;3.78;;;;;;;11.79;100.00;100086.31;5061576;28;20145;-57
2023/07/15 10:28:35;;;;;;;9.35;2.97;;;;;;;11.74;100.00;100091.63;5072693;28;20064;-57
2023/07/15 10:34:21;;;;;;;11.88;3.58;;;;;;;11.69;100.00;100079.56;5054999;28;20108;-60
2023/07/15 10:36:53;;;;;;;8.32;3.28;;;;;;;11.53;100.00;100064.22;5061974;28;20075;-61
2023/07/15 10:39:33;;;;;;;13.27;3.38;;;;;;;11.76;100.00;100078.53;5071376;28;20355;-57
2023/07/15 10:42:11;;;;;;;9.65;3.22;;;;;;;11.79;100.00;100088.91;5062055;28;20846;-58
2023/07/15 10:44:46;;;;;;;9.68;3.65;;;;;;;11.74;100.00;100090.78;5060718;28;20052;-58
2023/07/15 10:47:22;;;;;;;11.63;4.20;;;;;;;11.62;100.00;100077.06;5071692;28;20142;-59
2023/07/15 10:49:54;;;;;;;7.25;3.45;;;;;;;11.75;100.00;100087.25;5059844;28;20370;-58
2023/07/15 10:52:39;;;;;;;14.57;4.68;;;;;;;11.72;100.00;100087.34;5071275;28;20075;-59
2023/07/15 10:55:16;;;;;;;9.35;3.55;;;;;;;11.73;100.00;100083.81;5059473;28;20133;-57
2023/07/15 10:57:59;;;;;;;8.45;3.17;;;;;;;11.55;100.00;100054.56;5060506;28;20209;-60
2023/07/15 11:00:38;;;;;;;11.38;4.28;;;;;;;11.70;100.00;100083.88;5071651;28;21074;-59
2023/07/15 11:03:12;;;;;;;11.02;4.07;;;;;;;11.77;100.00;100090.72;5061843;28;20050;-59
2023/07/15 11:05:45;;;;;;;10.82;3.55;;;;;;;11.78;100.00;100087.19;5060438;28;20101;-59
2023/07/15 11:08:19;;;;;;;9.73;3.85;;;;;;;11.73;100.00;100079.47;5070541;28;20063;-56
2023/07/15 11:10:51;;;;;;;9.13;3.92;;;;;;;11.73;100.00;100073.34;5059919;28;20373;-57
2023/07/15 11:13:24;;;;;;;10.93;3.85;;;;;;;11.76;100.00;100075.91;5071530;28;20104;-59
2023/07/15 11:15:56;;;;;;;9.65;3.70;;;;;;;11.47;100.00;100040.81;5061924;28;20042;-59
2023/07/15 11:18:39;;;;;;;12.10;3.47;;;;;;;11.77;100.00;100078.47;5069462;28;20061;-58
2023/07/15 11:21:12;;;;;;;8.25;4.15;;;;;;;11.75;100.00;100076.78;5061656;28;20059;-60
2023/07/15 11:23:46;;;;;;;9.85;3.33;;;;;;;11.72;100.00;100082.09;5059257;28;20052;-57
2023/07/15 11:26:18;;;;;;;12.07;4.40;;;;;;;11.75;100.00;100092.50;5070060;28;20092;-58
2023/07/15 11:28:51;;;;;;;12.40;3.70;;;;;;;11.69;100.00;100097.88;5057774;28;20146;-57
2023/07/15 11:31:29;;;;;;;12.38;4.18;;;;;;;11.71;100.00;100096.09;5070647;28;20768;-58
2023/07/15 11:34:03;;;;;;;11.18;4.13;;;;;;;11.70;100.00;100094.34;5060063;28;20462;-57
2023/07/15 11:36:37;;;;;;;13.27;4.22;;;;;;;11.72;100.00;100097.81;5071820;28;20462;-57
2023/07/15 11:39:19;;;;;;;14.77;4.22;;;;;;;11.56;100.00;100081.63;5060250;28;20070;-59
2023/07/15 11:41:55;;;;;;;9.70;4.00;;;;;;;11.80;100.00;100106.31;5059721;28;20073;-57
2023/07/15 11:44:27;;;;;;;12.50;3.90;;;;;;;11.84;100.00;100108.84;5070947;28;20083;-59
2023/07/15 11:46:59;;;;;;;10.88;4.32;;;;;;;11.75;100.00;100101.19;5059438;28;20143;-57
2023/07/15 11:49:33;;;;;;;10.32;4.07;;;;;;;11.84;100.00;100113.22;5071442;28;20051;-59
2023/07/15 11:52:08;;;;;;;10.45;4.60;;;;;;;11.81;100.00;100119.41;5060090;28;20147;-59